createdAt,value
2022-08-08T00:01:08.944Z,23.48
2022-08-08T00:03:37.212Z,23.66
2022-08-08T00:06:13.205Z,23.78
2022-08-08T00:08:57.179Z,23.00
2022-08-08T00:11:25.083Z,23.34
2022-08-08T00:14:17.224Z,23.31
2022-08-08T00:16:45.298Z,23.42
2022-08-08T00:19:15.533Z,23.32
2022-08-08T00:21:45.941Z,23.08
2022-08-08T00:24:15.477Z,23.31
2022-08-08T00:26:43.367Z,23.23
2022-08-08T00:29:10.511Z,23.29
2022-08-08T00:32:21.137Z,22.82
2022-08-08T00:34:55.088Z,23.15
2022-08-08T00:37:47.642Z,23.20
2022-08-08T00:41:11.653Z,23.06
2022-08-08T00:43:40.693Z,22.77
2022-08-08T00:46:20.897Z,22.97
2022-08-08T00:49:22.742Z,23.13
2022-08-08T00:51:53.376Z,23.03
2022-08-08T00:54:43.317Z,23.19
2022-08-08T00:57:34.676Z,22.83
2022-08-08T01:00:04.841Z,23.12
2022-08-08T01:04:01.282Z,22.96
2022-08-08T01:05:59.166Z,23.01
2022-08-08T01:08:28.680Z,23.08
2022-08-08T01:11:27.458Z,23.14
2022-08-08T01:14:16.570Z,23.05
2022-08-08T01:17:03.331Z,23.08
2022-08-08T01:19:51.830Z,23.11
2022-08-08T01:22:39.188Z,23.21
2022-08-08T01:25:16.827Z,23.33
2022-08-08T01:28:00.108Z,23.27
2022-08-08T01:30:46.952Z,23.24
2022-08-08T01:33:43.102Z,23.08
2022-08-08T01:36:33.563Z,23.01
2022-08-08T01:39:05.946Z,23.00
2022-08-08T01:41:43.830Z,22.85
2022-08-08T01:44:11.716Z,22.94
2022-08-08T01:46:47.381Z,23.18
2022-08-08T01:49:22.813Z,23.43
2022-08-08T01:54:04.524Z,23.34
2022-08-08T01:55:26.313Z,23.30
2022-08-08T01:58:13.866Z,23.54
2022-08-08T02:00:48.527Z,23.52
2022-08-08T02:03:56.060Z,22.89
2022-08-08T02:06:32.778Z,23.15
2022-08-08T02:09:17.384Z,23.14
2022-08-08T02:11:58.959Z,23.11
2022-08-08T02:14:34.454Z,23.28
2022-08-08T02:17:26.901Z,23.14
2022-08-08T02:21:00.892Z,23.37
2022-08-08T02:23:18.583Z,22.94
2022-08-08T02:25:48.754Z,23.10
2022-08-08T02:28:34.685Z,23.20
2022-08-08T02:31:57.819Z,23.12
2022-08-08T02:34:07.231Z,23.03
2022-08-08T02:36:40.865Z,23.22
2022-08-08T02:39:41.251Z,22.90
2022-08-08T02:42:36.168Z,22.95
2022-08-08T02:45:18.211Z,23.12
2022-08-08T02:47:55.782Z,23.20
2022-08-08T02:50:53.061Z,22.87
2022-08-08T02:53:32.165Z,22.71
2022-08-08T02:56:09.105Z,23.06
2022-08-08T02:58:56.197Z,23.24
2022-08-08T03:01:32.698Z,23.24
2022-08-08T03:05:02.470Z,23.23
2022-08-08T03:07:58.240Z,23.23
2022-08-08T03:10:36.168Z,22.77
2022-08-08T03:15:53.355Z,22.61
2022-08-08T03:16:12.059Z,22.91
2022-08-08T03:19:07.172Z,23.14
2022-08-08T03:21:54.810Z,22.84
2022-08-08T03:24:21.787Z,23.18
2022-08-08T03:26:52.796Z,23.05
2022-08-08T03:29:27.107Z,22.82
2022-08-08T03:32:29.159Z,23.00
2022-08-08T03:34:57.976Z,23.14
2022-08-08T03:38:54.879Z,23.07
2022-08-08T03:40:28.977Z,22.98
2022-08-08T03:43:16.614Z,23.22
2022-08-08T03:46:03.125Z,22.90
2022-08-08T03:49:10.017Z,23.08
2022-08-08T03:51:19.545Z,23.46
2022-08-08T03:54:06.847Z,23.34
2022-08-08T03:56:35.848Z,23.05
2022-08-08T03:59:03.581Z,22.81
2022-08-08T04:02:15.998Z,23.08
2022-08-08T04:04:30.744Z,23.45
2022-08-08T04:07:01.415Z,23.28
2022-08-08T04:09:30.811Z,22.96
2022-08-08T04:12:17.164Z,22.69
2022-08-08T04:14:47.214Z,23.07
2022-08-08T04:17:22.439Z,23.23
2022-08-08T04:20:08.069Z,23.13
2022-08-08T04:22:36.115Z,23.10
2022-08-08T04:25:03.943Z,23.26
2022-08-08T04:28:03.007Z,23.16
2022-08-08T04:30:19.638Z,22.95
2022-08-08T04:32:50.352Z,23.21
2022-08-08T04:35:20.172Z,23.19
2022-08-08T04:37:50.383Z,23.25
2022-08-08T04:40:18.835Z,23.08
2022-08-08T04:42:57.215Z,23.06
2022-08-08T04:45:26.162Z,23.43
2022-08-08T04:47:54.428Z,23.41
2022-08-08T04:50:24.288Z,23.57
2022-08-08T04:52:58.512Z,23.54
2022-08-08T04:55:29.174Z,23.36
2022-08-08T04:58:09.504Z,23.17
2022-08-08T05:00:39.552Z,23.06
2022-08-08T05:03:12.670Z,23.28
2022-08-08T05:05:45.825Z,23.43
2022-08-08T05:08:21.660Z,23.36
2022-08-08T05:10:56.696Z,23.23
2022-08-08T05:13:26.110Z,23.20
2022-08-08T05:16:48.501Z,23.16
2022-08-08T05:18:41.211Z,23.42
2022-08-08T05:21:14.376Z,23.08
2022-08-08T05:23:45.944Z,22.88
2022-08-08T05:26:14.203Z,23.24
2022-08-08T05:28:56.288Z,23.23
2022-08-08T05:32:03.712Z,23.65
2022-08-08T05:34:30.922Z,23.77
2022-08-08T05:36:58.286Z,23.25
2022-08-08T05:39:28.573Z,23.52
2022-08-08T05:42:02.686Z,23.63
2022-08-08T05:44:31.416Z,23.55
2022-08-08T05:47:03.169Z,23.51
2022-08-08T05:49:32.421Z,24.23
2022-08-08T05:52:06.085Z,24.70
2022-08-08T05:54:49.717Z,24.90
2022-08-08T05:57:57.879Z,24.63
2022-08-08T06:00:22.934Z,24.87
2022-08-08T06:03:10.574Z,23.89
2022-08-08T06:05:51.758Z,23.78
2022-08-08T06:08:34.851Z,23.74
2022-08-08T06:11:04.272Z,23.99
2022-08-08T06:13:35.610Z,23.79
2022-08-08T06:16:04.297Z,24.02
2022-08-08T06:18:36.501Z,24.60
2022-08-08T06:21:28.397Z,24.97
2022-08-08T06:24:02.208Z,24.23
2022-08-08T06:26:38.300Z,24.53
2022-08-08T06:29:48.810Z,24.52
2022-08-08T06:32:11.365Z,24.48
2022-08-08T06:35:02.864Z,24.48
2022-08-08T06:37:37.975Z,24.55
2022-08-08T06:40:10.445Z,24.77
2022-08-08T06:42:47.120Z,24.83
2022-08-08T06:45:17.269Z,25.10
2022-08-08T06:47:52.616Z,24.98
2022-08-08T06:50:31.579Z,25.15
2022-08-08T06:53:00.856Z,25.11
2022-08-08T06:55:41.742Z,25.10
2022-08-08T06:58:10.038Z,24.74
2022-08-08T07:00:40.704Z,24.96
2022-08-08T07:03:19.493Z,25.05
2022-08-08T07:06:02.224Z,24.89
2022-08-08T07:08:32.943Z,24.48
2022-08-08T07:11:00.391Z,24.20
2022-08-08T07:13:30.866Z,24.31
2022-08-08T07:16:05.400Z,24.23
2022-08-08T07:18:57.835Z,23.99
2022-08-08T07:21:27.987Z,24.28
2022-08-08T07:24:04.405Z,24.73
2022-08-08T07:26:37.857Z,24.63
2022-08-08T07:29:08.267Z,24.82
2022-08-08T07:31:40.177Z,24.23
2022-08-08T07:34:09.658Z,24.55
2022-08-08T07:36:37.642Z,24.87
2022-08-08T07:39:22.524Z,24.94
2022-08-08T07:42:04.585Z,25.27
2022-08-08T07:44:40.754Z,25.66
2022-08-08T07:47:11.073Z,26.01
2022-08-08T07:49:41.955Z,25.70
2022-08-08T07:52:19.681Z,25.76
2022-08-08T07:54:54.191Z,26.10
2022-08-08T07:57:24.586Z,26.12
2022-08-08T07:59:57.450Z,26.06
2022-08-08T08:02:34.718Z,26.07
2022-08-08T08:05:14.406Z,25.48
2022-08-08T08:07:45.876Z,25.82
2022-08-08T08:10:14.454Z,26.06
2022-08-08T08:12:43.734Z,26.63
2022-08-08T08:15:15.773Z,26.84
2022-08-08T08:17:48.772Z,26.16
2022-08-08T08:20:18.009Z,26.01
2022-08-08T08:22:47.397Z,26.14
2022-08-08T08:25:16.993Z,26.35
2022-08-08T08:27:47.350Z,26.47
2022-08-08T08:30:14.836Z,27.43
2022-08-08T08:32:51.191Z,27.94
2022-08-08T08:35:21.363Z,27.90
2022-08-08T08:38:19.155Z,27.16
2022-08-08T08:40:48.596Z,27.90
2022-08-08T08:43:19.028Z,28.06
2022-08-08T08:45:47.788Z,27.94
2022-08-08T08:48:16.397Z,27.38
2022-08-08T08:50:52.147Z,27.52
2022-08-08T08:53:27.787Z,27.65
2022-08-08T08:56:07.912Z,27.88
2022-08-08T08:58:39.710Z,28.25
2022-08-08T09:01:10.301Z,28.57
2022-08-08T09:03:46.596Z,28.00
2022-08-08T09:06:28.606Z,28.10
2022-08-08T09:09:07.467Z,28.18
2022-08-08T09:12:01.634Z,28.14
2022-08-08T09:14:34.591Z,28.23
2022-08-08T09:17:11.523Z,28.49
2022-08-08T09:22:00.535Z,28.40
2022-08-08T09:22:29.772Z,28.28
2022-08-08T09:24:58.602Z,28.28
2022-08-08T09:27:55.873Z,27.95
2022-08-08T09:30:17.215Z,27.72
2022-08-08T09:33:13.147Z,27.78
2022-08-08T09:35:38.466Z,27.99
2022-08-08T09:38:24.365Z,27.98
2022-08-08T09:40:57.597Z,28.02
2022-08-08T09:44:04.446Z,27.83
2022-08-08T09:46:25.576Z,27.82
2022-08-08T09:49:18.475Z,27.75
2022-08-08T09:52:07.504Z,27.58
2022-08-08T09:54:44.293Z,27.34
2022-08-08T09:57:25.848Z,27.69
2022-08-08T10:00:28.712Z,27.94
2022-08-08T10:02:42.011Z,27.77
2022-08-08T10:05:19.934Z,27.47
2022-08-08T10:08:00.843Z,27.31
2022-08-08T10:10:32.820Z,27.77
2022-08-08T10:13:00.594Z,27.62
2022-08-08T10:15:42.210Z,27.90
2022-08-08T10:18:28.838Z,27.75
2022-08-08T10:21:25.344Z,26.96
2022-08-08T10:23:58.262Z,27.56
2022-08-08T10:26:57.630Z,27.85
2022-08-08T10:29:22.955Z,27.87
2022-08-08T10:32:09.543Z,27.19
2022-08-08T10:34:43.381Z,27.31
2022-08-08T10:37:13.594Z,27.40
2022-08-08T10:39:54.098Z,27.51
2022-08-08T10:42:27.367Z,27.27
2022-08-08T10:45:02.020Z,27.34
2022-08-08T10:47:42.912Z,27.28
2022-08-08T10:50:15.651Z,27.46
2022-08-08T10:52:43.294Z,27.40
2022-08-08T10:55:39.898Z,27.48
2022-08-08T10:58:06.096Z,27.37
2022-08-08T11:00:48.849Z,27.02
2022-08-08T11:03:37.067Z,27.05
2022-08-08T11:06:12.729Z,27.07
2022-08-08T11:08:53.660Z,27.03
2022-08-08T11:11:59.979Z,27.05
2022-08-08T11:14:12.312Z,26.55
2022-08-08T11:16:46.596Z,26.83
2022-08-08T11:19:15.670Z,27.16
2022-08-08T11:21:55.624Z,26.16
2022-08-08T11:24:25.525Z,26.67
2022-08-08T11:26:56.914Z,27.00
2022-08-08T11:29:41.344Z,27.07
2022-08-08T11:32:13.400Z,27.22
2022-08-08T11:35:07.757Z,27.33
2022-08-08T11:38:37.174Z,27.74
2022-08-08T11:40:22.366Z,27.23
2022-08-08T11:42:53.153Z,27.63
2022-08-08T11:45:21.658Z,27.41
2022-08-08T11:48:02.981Z,26.71
2022-08-08T11:50:32.385Z,27.18
2022-08-08T11:53:06.094Z,26.49
2022-08-08T11:55:36.466Z,27.22
2022-08-08T11:58:14.699Z,26.69
2022-08-08T12:00:43.528Z,26.90
2022-08-08T12:03:21.263Z,26.66
2022-08-08T12:05:48.792Z,26.88
2022-08-08T12:08:17.196Z,25.81
2022-08-08T12:10:51.433Z,26.13
2022-08-08T12:13:37.640Z,26.43
2022-08-08T12:16:15.716Z,25.80
2022-08-08T12:18:50.349Z,25.50
2022-08-08T12:21:25.943Z,25.17
2022-08-08T12:24:13.576Z,25.24
2022-08-08T12:26:42.035Z,24.97
2022-08-08T12:29:19.878Z,25.22
2022-08-08T12:32:09.806Z,25.72
2022-08-08T12:34:44.869Z,25.09
2022-08-08T12:37:41.065Z,25.25
2022-08-08T12:40:24.202Z,25.14
2022-08-08T12:42:52.742Z,24.47
2022-08-08T12:45:59.969Z,24.97
2022-08-08T12:48:35.543Z,25.15
2022-08-08T12:51:05.026Z,25.57
2022-08-08T12:53:41.987Z,26.15
2022-08-08T12:56:19.012Z,25.73
2022-08-08T12:58:51.504Z,25.93
2022-08-08T13:01:24.585Z,26.12
2022-08-08T13:04:12.494Z,25.86
2022-08-08T13:07:06.135Z,25.20
2022-08-08T13:09:57.614Z,25.02
2022-08-08T13:12:29.111Z,25.12
2022-08-08T13:14:57.333Z,25.03
2022-08-08T13:18:07.873Z,25.33
2022-08-08T13:20:18.311Z,25.86
2022-08-08T13:22:45.801Z,25.75
2022-08-08T13:25:16.705Z,25.27
2022-08-08T13:27:44.302Z,25.54
2022-08-08T13:30:20.861Z,25.12
2022-08-08T13:32:57.356Z,25.22
2022-08-08T13:35:29.661Z,26.00
2022-08-08T13:38:08.502Z,25.22
2022-08-08T13:40:40.991Z,25.49
2022-08-08T13:43:08.976Z,25.36
2022-08-08T13:45:36.992Z,25.72
2022-08-08T13:48:05.814Z,25.62
2022-08-08T13:50:49.114Z,25.79
2022-08-08T13:53:33.924Z,25.90
2022-08-08T13:56:11.743Z,26.58
2022-08-08T13:58:57.192Z,26.56
2022-08-08T14:01:41.656Z,26.69
2022-08-08T14:04:21.544Z,25.93
2022-08-08T14:06:48.935Z,26.51
2022-08-08T14:09:24.307Z,26.08
2022-08-08T14:11:58.888Z,25.31
2022-08-08T14:14:39.557Z,25.71
2022-08-08T14:17:07.554Z,26.10
2022-08-08T14:19:57.755Z,25.91
2022-08-08T14:22:28.027Z,26.27
2022-08-08T14:25:00.628Z,25.61
2022-08-08T14:27:29.301Z,25.62
2022-08-08T14:30:04.380Z,25.95
2022-08-08T14:32:53.304Z,26.56
2022-08-08T14:35:21.924Z,25.63
2022-08-08T14:37:59.826Z,25.94
2022-08-08T14:40:29.729Z,25.79
2022-08-08T14:43:01.373Z,25.38
2022-08-08T14:46:01.418Z,25.11
2022-08-08T14:48:27.248Z,25.27
2022-08-08T14:51:03.747Z,25.52
2022-08-08T14:53:37.159Z,25.31
2022-08-08T14:56:04.709Z,24.89
2022-08-08T14:58:33.565Z,25.21
2022-08-08T15:01:01.189Z,25.18
2022-08-08T15:03:44.852Z,25.45
2022-08-08T15:06:20.627Z,25.20
2022-08-08T15:08:54.845Z,25.09
2022-08-08T15:11:22.694Z,25.32
2022-08-08T15:14:03.213Z,24.66
2022-08-08T15:16:34.538Z,24.31
2022-08-08T15:19:03.387Z,24.29
2022-08-08T15:21:30.739Z,24.62
2022-08-08T15:23:58.418Z,24.40
2022-08-08T15:26:28.948Z,24.72
2022-08-08T15:28:57.201Z,24.70
2022-08-08T15:31:25.959Z,25.05
2022-08-08T15:34:30.105Z,24.90
2022-08-08T15:36:59.598Z,24.93
2022-08-08T15:39:37.702Z,25.15
2022-08-08T15:42:10.143Z,24.75
2022-08-08T15:44:38.635Z,25.20
2022-08-08T15:47:15.212Z,25.37
2022-08-08T15:49:44.394Z,25.36
2022-08-08T15:52:15.181Z,25.27
2022-08-08T15:54:42.910Z,25.21
2022-08-08T15:57:15.425Z,25.24
2022-08-08T16:00:05.315Z,25.00
2022-08-08T16:02:44.139Z,24.67
2022-08-08T16:05:19.373Z,24.80
2022-08-08T16:07:51.280Z,24.33
2022-08-08T16:13:09.722Z,24.28
2022-08-08T16:13:29.399Z,24.51
2022-08-08T16:15:58.559Z,24.60
2022-08-08T16:18:32.331Z,24.97
2022-08-08T16:21:01.264Z,24.55
2022-08-08T16:23:31.888Z,24.75
2022-08-08T16:26:05.018Z,24.95
2022-08-08T16:28:41.351Z,24.84
2022-08-08T16:31:09.213Z,24.72
2022-08-08T16:33:38.741Z,24.81
2022-08-08T16:36:09.717Z,24.84
2022-08-08T16:38:44.449Z,24.99
2022-08-08T16:41:20.165Z,24.54
2022-08-08T16:43:51.323Z,24.62
2022-08-08T16:46:43.448Z,25.04
2022-08-08T16:49:07.927Z,24.86
2022-08-08T16:55:07.106Z,25.17
2022-08-08T16:55:20.746Z,25.10
2022-08-08T16:57:27.813Z,24.84
2022-08-08T17:00:06.512Z,24.52
2022-08-08T17:02:39.302Z,24.95
2022-08-08T17:05:08.733Z,24.88
2022-08-08T17:07:40.838Z,24.58
2022-08-08T17:10:09.588Z,24.54
2022-08-08T17:12:37.495Z,24.24
2022-08-08T17:15:18.153Z,24.41
2022-08-08T17:18:03.088Z,24.29
2022-08-08T17:20:32.605Z,24.54
2022-08-08T17:23:18.252Z,24.38
2022-08-08T17:25:52.587Z,23.60
2022-08-08T17:28:30.742Z,23.93
2022-08-08T17:31:45.655Z,23.79
2022-08-08T17:34:35.564Z,23.59
2022-08-08T17:36:55.499Z,23.98
2022-08-08T17:40:05.106Z,23.85
2022-08-08T17:42:15.817Z,24.02
2022-08-08T17:44:45.555Z,23.71
2022-08-08T17:47:23.201Z,23.40
2022-08-08T17:49:51.725Z,23.22
2022-08-08T17:52:20.095Z,23.30
2022-08-08T17:54:51.933Z,23.38
2022-08-08T17:57:23.911Z,22.40
2022-08-08T17:59:51.837Z,22.73
2022-08-08T18:02:28.771Z,23.11
2022-08-08T18:05:04.328Z,23.26
2022-08-08T18:08:01.233Z,23.06
2022-08-08T18:10:20.445Z,22.94
2022-08-08T18:12:59.107Z,22.50
2022-08-08T18:15:31.174Z,22.71
2022-08-08T18:18:09.011Z,22.79
2022-08-08T18:20:59.149Z,22.80
2022-08-08T18:23:27.086Z,22.68
2022-08-08T18:25:56.479Z,22.75
2022-08-08T18:28:34.842Z,22.41
2022-08-08T18:31:19.813Z,22.60
2022-08-08T18:34:11.817Z,22.08
2022-08-08T18:36:34.698Z,22.54
2022-08-08T18:39:03.373Z,21.95
2022-08-08T18:41:51.158Z,21.64
2022-08-08T18:44:18.008Z,22.07
2022-08-08T18:46:54.104Z,21.57
2022-08-08T18:49:24.483Z,22.05
2022-08-08T18:51:59.925Z,22.03
2022-08-08T18:54:29.945Z,22.03
2022-08-08T18:56:58.167Z,21.93
2022-08-08T18:59:34.394Z,22.31
2022-08-08T19:02:25.311Z,21.99
2022-08-08T19:04:51.852Z,22.11
2022-08-08T19:07:23.132Z,22.18
2022-08-08T19:10:16.111Z,22.50
2022-08-08T19:12:44.641Z,22.27
2022-08-08T19:15:23.566Z,22.25
2022-08-08T19:18:32.950Z,21.83
2022-08-08T19:20:39.563Z,22.13
2022-08-08T19:23:10.523Z,22.20
2022-08-08T19:26:20.529Z,22.41
2022-08-08T19:28:25.297Z,21.67
2022-08-08T19:31:03.322Z,21.64
2022-08-08T19:33:51.860Z,21.84
2022-08-08T19:36:25.339Z,21.88
2022-08-08T19:38:56.072Z,21.80
2022-08-08T19:41:29.753Z,21.92
2022-08-08T19:44:04.033Z,21.92
2022-08-08T19:58:24.279Z,21.31
2022-08-08T20:00:55.424Z,21.94
2022-08-08T20:04:02.019Z,22.00
2022-08-08T20:06:13.759Z,21.83
2022-08-08T20:08:48.015Z,21.59
2022-08-08T20:11:16.285Z,21.50
2022-08-08T20:14:13.035Z,21.73
2022-08-08T20:16:31.056Z,21.89
2022-08-08T20:19:01.606Z,22.15
2022-08-08T20:21:32.090Z,22.13
2022-08-08T20:24:06.273Z,22.04
2022-08-08T20:26:38.468Z,22.21
2022-08-08T20:29:10.953Z,21.90
2022-08-08T20:32:07.061Z,21.85
2022-08-08T20:34:29.277Z,22.10
2022-08-08T20:36:59.775Z,22.05
2022-08-08T20:39:39.688Z,22.11
2022-08-08T20:42:14.969Z,22.24
2022-08-08T20:44:43.175Z,22.28
2022-08-08T20:47:15.705Z,22.04
2022-08-08T20:49:50.958Z,22.26
2022-08-08T20:52:23.334Z,22.06
2022-08-08T20:54:50.799Z,21.78
2022-08-08T20:57:19.175Z,21.78
2022-08-08T20:59:48.678Z,21.66
2022-08-08T21:02:25.324Z,21.92
2022-08-08T21:05:01.149Z,22.19
2022-08-08T21:08:07.868Z,22.29
2022-08-08T21:10:20.835Z,21.76
2022-08-08T21:12:54.260Z,22.04
2022-08-08T21:16:06.173Z,22.11
2022-08-08T21:18:09.374Z,21.98
2022-08-08T21:20:39.220Z,21.82
2022-08-08T21:23:09.167Z,22.15
2022-08-08T21:25:36.937Z,22.07
2022-08-08T21:28:10.231Z,21.97
2022-08-08T21:30:45.358Z,22.23
2022-08-08T21:33:17.090Z,21.98
2022-08-08T21:36:16.992Z,21.63
2022-08-08T21:38:31.665Z,21.99
2022-08-08T21:40:59.100Z,22.01
2022-08-08T21:43:33.009Z,22.06
2022-08-08T21:48:05.443Z,22.12
2022-08-08T21:48:51.641Z,22.16
2022-08-08T21:54:18.486Z,21.91
2022-08-08T21:54:22.800Z,22.18
2022-08-08T21:56:56.143Z,22.33
2022-08-08T21:59:23.342Z,22.36
2022-08-08T22:01:52.009Z,22.16
2022-08-08T22:04:24.729Z,21.94
2022-08-08T22:06:52.796Z,22.29
2022-08-08T22:09:20.033Z,22.34
2022-08-08T22:12:04.935Z,22.09
2022-08-08T22:14:37.120Z,22.23
2022-08-08T22:17:04.557Z,22.01
2022-08-08T22:20:11.066Z,21.97
2022-08-08T22:22:19.230Z,22.51
2022-08-08T22:24:46.431Z,22.25
2022-08-08T22:27:15.177Z,22.41
2022-08-08T22:29:58.672Z,22.24
2022-08-08T22:32:29.980Z,22.34
2022-08-08T22:34:58.680Z,22.47
2022-08-08T22:37:48.737Z,22.02
2022-08-08T22:40:17.112Z,22.22
2022-08-08T22:42:47.227Z,22.17
2022-08-08T22:45:15.414Z,21.87
2022-08-08T22:47:47.395Z,21.45
2022-08-08T22:50:26.369Z,22.19
2022-08-08T22:54:27.753Z,22.05
2022-08-08T22:55:59.350Z,21.99
2022-08-08T22:58:33.097Z,21.45
2022-08-08T23:01:26.719Z,21.15
2022-08-08T23:03:53.648Z,21.66
2022-08-08T23:06:22.616Z,21.21
2022-08-08T23:08:55.700Z,21.16
2022-08-08T23:11:30.792Z,21.12
2022-08-08T23:14:19.078Z,21.22
2022-08-08T23:16:57.610Z,21.52
2022-08-08T23:19:30.822Z,21.17
2022-08-08T23:22:04.398Z,21.07
2022-08-08T23:24:36.571Z,21.21
2022-08-08T23:27:05.669Z,21.50
2022-08-08T23:29:32.945Z,21.07
2022-08-08T23:32:00.150Z,21.28
2022-08-08T23:34:29.334Z,21.13
2022-08-08T23:36:58.497Z,21.22
2022-08-08T23:39:26.515Z,21.33
2022-08-08T23:42:00.880Z,21.29
2022-08-08T23:44:29.162Z,21.19
2022-08-08T23:49:00.918Z,20.99
2022-08-08T23:49:49.611Z,20.97
2022-08-08T23:52:30.851Z,20.91
2022-08-08T23:55:13.858Z,20.86
2022-08-08T23:57:52.243Z,20.97
